createdAt,value
2018-11-25T00:00:13.143Z,98751.91
2018-11-25T00:02:41.338Z,98752.36
2018-11-25T00:05:10.537Z,98752.88
2018-11-25T00:07:38.676Z,98749.90
2018-11-25T00:10:07.539Z,98744.20
2018-11-25T00:12:35.880Z,98745.16
2018-11-25T00:15:04.169Z,98744.30
2018-11-25T00:17:32.311Z,98742.06
2018-11-25T00:20:00.492Z,98736.06
2018-11-25T00:22:28.642Z,98735.95
2018-11-25T00:24:56.779Z,98739.08
2018-11-25T00:27:24.910Z,98735.95
2018-11-25T00:29:53.059Z,98727.17
2018-11-25T00:32:21.246Z,98737.55
2018-11-25T00:34:50.177Z,98738.04
2018-11-25T00:37:18.309Z,98730.69
2018-11-25T00:39:46.487Z,98728.22
2018-11-25T00:42:14.714Z,98731.35
2018-11-25T00:44:42.929Z,98725.98
2018-11-25T00:47:11.106Z,98727.95
2018-11-25T00:49:39.294Z,98734.36
2018-11-25T00:52:07.516Z,98727.66
2018-11-25T00:54:35.619Z,98721.91
2018-11-25T00:57:03.841Z,98725.41
2018-11-25T00:59:31.969Z,98729.08
2018-11-25T01:02:00.269Z,98722.02
2018-11-25T01:04:28.435Z,98721.27
2018-11-25T01:06:56.588Z,98724.56
2018-11-25T01:09:24.770Z,98728.98
2018-11-25T01:11:52.962Z,98727.77
2018-11-25T01:14:21.120Z,98721.53
2018-11-25T01:16:49.284Z,98721.63
2018-11-25T01:19:17.443Z,98718.07
2018-11-25T01:21:45.653Z,98720.49
2018-11-25T01:24:13.790Z,98727.38
2018-11-25T01:26:42.076Z,98725.69
2018-11-25T01:29:10.270Z,98717.88
2018-11-25T01:31:38.431Z,98722.59
2018-11-25T01:34:06.929Z,98720.87
2018-11-25T01:36:35.063Z,98717.58
2018-11-25T01:39:03.202Z,98718.63
2018-11-25T01:41:31.445Z,98715.59
2018-11-25T01:43:59.575Z,98716.45
2018-11-25T01:46:27.785Z,98710.16
2018-11-25T01:48:55.903Z,98701.95
2018-11-25T01:51:24.200Z,98706.55
2018-11-25T01:53:52.421Z,98706.45
2018-11-25T01:56:20.577Z,98700.52
2018-11-25T01:58:48.705Z,98699.16
2018-11-25T02:01:16.929Z,98696.26
2018-11-25T02:03:45.091Z,98692.53
2018-11-25T02:06:13.269Z,98692.72
2018-11-25T02:08:41.456Z,98683.50
2018-11-25T02:11:09.618Z,98685.08
2018-11-25T02:13:37.747Z,98688.02
2018-11-25T02:16:05.991Z,98687.81
2018-11-25T02:18:34.127Z,98678.62
2018-11-25T02:21:02.424Z,98670.62
2018-11-25T02:23:30.592Z,98666.73
2018-11-25T02:25:58.870Z,98656.85
2018-11-25T02:28:27.039Z,98658.63
2018-11-25T02:30:55.216Z,98658.06
2018-11-25T02:33:23.477Z,98663.18
2018-11-25T02:35:51.652Z,98652.34
2018-11-25T02:38:19.851Z,98650.56
2018-11-25T02:40:47.982Z,98647.20
2018-11-25T02:43:16.114Z,98645.81
2018-11-25T02:45:44.259Z,98647.69
2018-11-25T02:48:12.463Z,98651.25
2018-11-25T02:50:40.588Z,98642.61
2018-11-25T02:53:08.908Z,98643.93
2018-11-25T02:55:38.222Z,98635.05
2018-11-25T02:58:06.394Z,98634.48
2018-11-25T03:00:34.551Z,98643.58
2018-11-25T03:03:02.702Z,98654.31
2018-11-25T03:05:30.879Z,98664.49
2018-11-25T03:07:59.043Z,98651.58
2018-11-25T03:10:27.265Z,98642.88
2018-11-25T03:12:55.418Z,98646.92
2018-11-25T03:15:23.569Z,98656.63
2018-11-25T03:17:51.708Z,98647.98
2018-11-25T03:20:19.848Z,98649.19
2018-11-25T03:22:47.987Z,98640.02
2018-11-25T03:25:18.087Z,98646.30
2018-11-25T03:27:46.384Z,98651.50
2018-11-25T03:30:17.509Z,98652.98
2018-11-25T03:32:46.530Z,98655.80
2018-11-25T03:35:15.714Z,98660.20
2018-11-25T03:37:43.887Z,98656.24
2018-11-25T03:40:15.974Z,98656.78
2018-11-25T03:42:44.110Z,98651.64
2018-11-25T03:45:18.135Z,98648.89
2018-11-25T03:47:46.314Z,98651.02
2018-11-25T03:50:15.113Z,98650.68
2018-11-25T03:52:43.279Z,98641.69
2018-11-25T03:55:13.074Z,98642.81
2018-11-25T03:57:42.395Z,98641.82
2018-11-25T04:00:15.552Z,98637.98
2018-11-25T04:02:43.742Z,98636.50
2018-11-25T04:05:13.174Z,98633.82
2018-11-25T04:07:41.316Z,98638.09
2018-11-25T04:10:11.611Z,98632.08
2018-11-25T04:12:39.814Z,98636.91
2018-11-25T04:15:10.127Z,98637.83
2018-11-25T04:17:38.274Z,98630.36
2018-11-25T04:20:08.422Z,98634.73
2018-11-25T04:22:37.093Z,98637.45
2018-11-25T04:25:06.898Z,98630.66
2018-11-25T04:27:35.055Z,98632.62
2018-11-25T04:30:03.584Z,98631.77
2018-11-25T04:32:31.726Z,98630.56
2018-11-25T04:35:00.044Z,98623.72
2018-11-25T04:37:28.194Z,98624.76
2018-11-25T04:39:56.366Z,98627.89
2018-11-25T04:42:25.011Z,98625.17
2018-11-25T04:44:53.230Z,98617.38
2018-11-25T04:47:21.386Z,98617.38
2018-11-25T04:49:49.548Z,98616.15
2018-11-25T04:52:17.737Z,98613.63
2018-11-25T04:54:45.925Z,98617.20
2018-11-25T04:57:14.110Z,98610.59
2018-11-25T04:59:42.259Z,98616.08
2018-11-25T05:02:10.499Z,98619.11
2018-11-25T05:04:38.645Z,98614.09
2018-11-25T05:07:07.295Z,98615.89
2018-11-25T05:09:35.459Z,98610.14
2018-11-25T05:12:03.654Z,98599.27
2018-11-25T05:14:31.815Z,98605.98
2018-11-25T05:16:59.964Z,98603.80
2018-11-25T05:19:28.115Z,98599.95
2018-11-25T05:21:56.336Z,98599.19
2018-11-25T05:24:24.531Z,98602.75
2018-11-25T05:26:52.676Z,98598.95
2018-11-25T05:29:24.399Z,98593.88
2018-11-25T05:31:52.527Z,98584.52
2018-11-25T05:34:20.791Z,98587.14
2018-11-25T05:36:48.974Z,98585.37
2018-11-25T05:39:17.128Z,98583.24
2018-11-25T05:41:45.318Z,98580.61
2018-11-25T05:44:13.548Z,98585.46
2018-11-25T05:46:41.745Z,98598.41
2018-11-25T05:49:09.883Z,98599.63
2018-11-25T05:51:38.072Z,98609.59
2018-11-25T05:54:06.275Z,98605.11
2018-11-25T05:56:34.448Z,98608.28
2018-11-25T05:59:02.639Z,98611.19
2018-11-25T06:01:30.941Z,98607.19
2018-11-25T06:03:59.121Z,98604.34
2018-11-25T06:06:27.345Z,98603.30
2018-11-25T06:08:55.482Z,98600.00
2018-11-25T06:11:24.100Z,98597.05
2018-11-25T06:13:52.239Z,98598.41
2018-11-25T06:16:20.442Z,98598.77
2018-11-25T06:18:48.674Z,98605.87
2018-11-25T06:21:16.894Z,98597.14
2018-11-25T06:23:45.086Z,98601.98
2018-11-25T06:26:13.446Z,98598.22
2018-11-25T06:28:41.744Z,98598.67
2018-11-25T06:31:10.474Z,98608.33
2018-11-25T06:33:38.643Z,98603.80
2018-11-25T06:36:06.909Z,98608.02
2018-11-25T06:38:35.098Z,98607.41
2018-11-25T06:41:03.392Z,98601.67
2018-11-25T06:43:31.522Z,98603.88
2018-11-25T06:45:59.667Z,98604.28
2018-11-25T06:48:28.386Z,98599.05
2018-11-25T06:50:56.601Z,98599.27
2018-11-25T06:53:24.867Z,98598.13
2018-11-25T06:55:53.398Z,98599.98
2018-11-25T06:58:22.130Z,98603.16
2018-11-25T07:00:50.333Z,98601.13
2018-11-25T07:03:18.714Z,98596.55
2018-11-25T07:05:47.918Z,98599.72
2018-11-25T07:08:16.083Z,98601.58
2018-11-25T07:10:44.294Z,98598.13
2018-11-25T07:13:12.440Z,98604.08
2018-11-25T07:15:40.785Z,98599.72
2018-11-25T07:18:08.986Z,98599.49
2018-11-25T07:20:37.192Z,98594.11
2018-11-25T07:23:05.479Z,98592.78
2018-11-25T07:25:33.702Z,98590.02
2018-11-25T07:28:17.624Z,98593.43
2018-11-25T07:30:30.172Z,98595.64
2018-11-25T07:32:58.338Z,98594.70
2018-11-25T07:35:27.415Z,98597.92
2018-11-25T07:37:55.608Z,98599.78
2018-11-25T07:40:24.453Z,98584.23
2018-11-25T07:42:53.335Z,98580.97
2018-11-25T07:45:29.723Z,98586.67
2018-11-25T07:47:50.795Z,98584.31
2018-11-25T07:50:18.951Z,98586.39
2018-11-25T07:52:47.908Z,98578.29
2018-11-25T07:55:20.196Z,98574.26
2018-11-25T07:57:48.978Z,98582.73
2018-11-25T08:00:21.111Z,98579.31
2018-11-25T08:02:49.987Z,98583.80
2018-11-25T08:05:19.331Z,98584.39
2018-11-25T08:07:47.459Z,98581.67
2018-11-25T08:10:16.140Z,98577.33
2018-11-25T08:12:44.773Z,98577.05
2018-11-25T08:15:13.873Z,98576.05
2018-11-25T08:17:42.058Z,98571.10
2018-11-25T08:20:11.450Z,98569.20
2018-11-25T08:22:39.580Z,98565.53
2018-11-25T08:25:09.954Z,98558.42
2018-11-25T08:27:38.178Z,98569.02
2018-11-25T08:30:09.533Z,98564.53
2018-11-25T08:32:38.109Z,98571.78
2018-11-25T08:35:06.903Z,98566.39
2018-11-25T08:37:35.113Z,98561.56
2018-11-25T08:40:03.476Z,98567.82
2018-11-25T08:42:31.740Z,98569.02
2018-11-25T08:45:03.086Z,98568.84
2018-11-25T08:47:31.208Z,98570.92
2018-11-25T08:49:59.351Z,98572.94
2018-11-25T08:52:27.531Z,98574.53
2018-11-25T08:54:55.666Z,98569.61
2018-11-25T08:57:25.016Z,98563.07
2018-11-25T08:59:52.171Z,98562.70
2018-11-25T09:02:20.291Z,98555.61
2018-11-25T09:04:48.692Z,98560.53
2018-11-25T09:07:16.921Z,98557.91
2018-11-25T09:09:45.069Z,98549.41
2018-11-25T09:12:13.223Z,98546.31
2018-11-25T09:14:41.764Z,98545.09
2018-11-25T09:17:10.010Z,98542.17
2018-11-25T09:19:38.143Z,98536.76
2018-11-25T09:22:06.787Z,98530.95
2018-11-25T09:24:34.999Z,98536.55
2018-11-25T09:27:03.127Z,98530.64
2018-11-25T09:29:32.347Z,98528.66
2018-11-25T09:32:00.536Z,98525.80
2018-11-25T09:34:28.728Z,98530.41
2018-11-25T09:36:56.900Z,98532.61
2018-11-25T09:39:25.160Z,98531.87
2018-11-25T09:41:53.343Z,98527.77
2018-11-25T09:44:21.719Z,98528.45
2018-11-25T09:46:49.902Z,98524.41
2018-11-25T09:49:18.075Z,98524.84
2018-11-25T09:51:46.240Z,98528.24
2018-11-25T09:54:14.370Z,98525.80
2018-11-25T09:56:42.512Z,98535.58
2018-11-25T09:59:10.665Z,98528.24
2018-11-25T10:01:38.832Z,98526.48
2018-11-25T10:04:07.795Z,98523.84
2018-11-25T10:06:35.989Z,98524.30
2018-11-25T10:09:05.083Z,98517.47
2018-11-25T10:11:33.222Z,98519.34
2018-11-25T10:14:01.341Z,98518.32
2018-11-25T10:16:29.476Z,98510.05
2018-11-25T10:18:57.702Z,98513.73
2018-11-25T10:21:25.835Z,98520.83
2018-11-25T10:23:54.026Z,98511.22
2018-11-25T10:26:22.183Z,98507.12
2018-11-25T10:28:50.385Z,98504.31
2018-11-25T10:31:18.586Z,98505.83
2018-11-25T10:33:46.731Z,98501.72
2018-11-25T10:36:14.866Z,98494.56
2018-11-25T10:38:43.092Z,98492.02
2018-11-25T10:41:11.354Z,98490.05
2018-11-25T10:43:39.496Z,98484.30
2018-11-25T10:46:07.649Z,98489.95
2018-11-25T10:48:35.775Z,98481.94
2018-11-25T10:51:03.938Z,98483.08
2018-11-25T10:53:32.072Z,98476.59
2018-11-25T10:56:00.290Z,98477.14
2018-11-25T10:58:28.792Z,98480.91
2018-11-25T11:01:01.097Z,98480.53
2018-11-25T11:03:34.670Z,98482.61
2018-11-25T11:06:08.237Z,98478.56
2018-11-25T11:08:36.378Z,98476.84
2018-11-25T11:11:05.044Z,98478.91
2018-11-25T11:13:33.166Z,98475.70
2018-11-25T11:16:01.645Z,98474.13
2018-11-25T11:18:29.774Z,98471.28
2018-11-25T11:20:58.003Z,98468.63
2018-11-25T11:23:26.130Z,98459.30
2018-11-25T11:25:54.304Z,98456.20
2018-11-25T11:28:22.446Z,98459.02
2018-11-25T11:30:50.629Z,98457.45
2018-11-25T11:33:18.769Z,98455.20
2018-11-25T11:35:46.972Z,98451.82
2018-11-25T11:38:15.201Z,98446.77
2018-11-25T11:40:43.333Z,98447.86
2018-11-25T11:43:11.681Z,98440.09
2018-11-25T11:45:39.829Z,98439.63
2018-11-25T11:48:07.957Z,98432.90
2018-11-25T11:50:36.159Z,98437.81
2018-11-25T11:53:04.545Z,98438.44
2018-11-25T11:55:32.665Z,98438.16
2018-11-25T11:58:00.842Z,98436.33
2018-11-25T12:00:30.376Z,98438.44
2018-11-25T12:02:58.770Z,98437.20
2018-11-25T12:05:27.426Z,98436.63
2018-11-25T12:07:55.706Z,98433.98
2018-11-25T12:10:23.828Z,98422.41
2018-11-25T12:12:52.064Z,98418.60
2018-11-25T12:15:30.217Z,98416.13
2018-11-25T12:17:51.711Z,98411.64
2018-11-25T12:20:21.388Z,98411.25
2018-11-25T12:22:49.083Z,98406.61
2018-11-25T12:25:17.665Z,98406.25
2018-11-25T12:27:45.886Z,98401.85
2018-11-25T12:30:15.017Z,98407.31
2018-11-25T12:32:44.218Z,98402.64
2018-11-25T12:35:13.385Z,98407.63
2018-11-25T12:37:41.516Z,98404.30
2018-11-25T12:40:18.669Z,98409.59
2018-11-25T12:42:49.005Z,98404.14
2018-11-25T12:45:17.777Z,98400.17
2018-11-25T12:47:46.030Z,98402.39
2018-11-25T12:50:19.237Z,98397.56
2018-11-25T12:52:47.374Z,98397.44
2018-11-25T12:55:16.646Z,98397.84
2018-11-25T12:57:44.775Z,98390.48
2018-11-25T13:00:32.328Z,98381.88
2018-11-25T13:03:00.883Z,98391.83
2018-11-25T13:05:29.126Z,98392.56
2018-11-25T13:07:57.681Z,98389.53
2018-11-25T13:10:25.882Z,98387.34
2018-11-25T13:12:54.018Z,98382.84
2018-11-25T13:15:22.144Z,98389.45
2018-11-25T13:17:50.636Z,98384.91
2018-11-25T13:20:18.850Z,98380.99
2018-11-25T13:22:47.074Z,98382.55
2018-11-25T13:25:16.606Z,98377.49
2018-11-25T13:27:44.744Z,98373.66
2018-11-25T13:30:22.796Z,98374.08
2018-11-25T13:32:52.216Z,98364.45
2018-11-25T13:35:20.499Z,98362.66
2018-11-25T13:37:48.653Z,98353.41
2018-11-25T13:40:17.239Z,98356.80
2018-11-25T13:42:45.412Z,98349.34
2018-11-25T13:45:13.599Z,98343.28
2018-11-25T13:47:41.752Z,98349.16
2018-11-25T13:50:10.962Z,98348.92
2018-11-25T13:52:39.158Z,98345.97
2018-11-25T13:55:10.762Z,98351.89
2018-11-25T13:57:38.971Z,98347.66
2018-11-25T14:01:15.573Z,98354.88
2018-11-25T14:03:43.705Z,98348.09
2018-11-25T14:06:13.628Z,98342.52
2018-11-25T14:08:42.645Z,98342.91
2018-11-25T14:11:13.038Z,98340.98
2018-11-25T14:13:41.216Z,98340.75
2018-11-25T14:16:11.256Z,98344.37
2018-11-25T14:18:39.396Z,98335.70
2018-11-25T14:21:07.630Z,98341.34
2018-11-25T14:23:35.786Z,98338.85
2018-11-25T14:26:11.719Z,98338.97
2018-11-25T14:28:39.867Z,98340.64
2018-11-25T14:31:08.130Z,98342.47
2018-11-25T14:33:36.359Z,98341.03
2018-11-25T14:36:04.985Z,98334.63
2018-11-25T14:38:33.197Z,98331.73
2018-11-25T14:41:01.487Z,98333.39
2018-11-25T14:43:29.715Z,98334.28
2018-11-25T14:45:57.925Z,98335.60
2018-11-25T14:48:26.043Z,98337.57
2018-11-25T14:50:54.214Z,98331.57
2018-11-25T14:53:22.386Z,98338.81
2018-11-25T14:55:50.504Z,98337.00
2018-11-25T14:58:18.709Z,98343.70
2018-11-25T15:00:47.170Z,98338.92
2018-11-25T15:03:15.373Z,98342.17
2018-11-25T15:05:45.185Z,98344.11
2018-11-25T15:08:15.984Z,98346.03
2018-11-25T15:10:44.142Z,98343.63
2018-11-25T15:13:12.713Z,98348.78
2018-11-25T15:15:40.910Z,98351.41
2018-11-25T15:18:09.701Z,98359.31
2018-11-25T15:20:38.030Z,98359.56
2018-11-25T15:23:10.557Z,98363.99
2018-11-25T15:25:45.068Z,98358.36
2018-11-25T15:28:14.018Z,98347.61
2018-11-25T15:30:42.238Z,98345.48
2018-11-25T15:33:11.557Z,98347.59
2018-11-25T15:35:39.866Z,98346.20
2018-11-25T15:38:08.460Z,98348.02
2018-11-25T15:40:37.402Z,98350.23
2018-11-25T15:43:06.897Z,98352.77
2018-11-25T15:45:35.171Z,98352.67
2018-11-25T15:48:16.864Z,98352.41
2018-11-25T15:50:45.239Z,98349.61
2018-11-25T15:53:13.610Z,98344.69
2018-11-25T15:55:43.043Z,98337.58
2018-11-25T15:58:11.234Z,98340.14
2018-11-25T16:00:39.491Z,98332.95
2018-11-25T16:03:10.053Z,98334.70
2018-11-25T16:05:40.172Z,98334.70
2018-11-25T16:08:08.403Z,98339.05
2018-11-25T16:10:37.350Z,98335.86
2018-11-25T16:13:06.563Z,98340.94
2018-11-25T16:15:35.516Z,98333.95
2018-11-25T16:18:03.802Z,98335.34
2018-11-25T16:20:32.152Z,98341.78
2018-11-25T16:23:02.707Z,98341.16
2018-11-25T16:26:04.339Z,98342.94
2018-11-25T16:28:34.854Z,98346.55
2018-11-25T16:31:03.011Z,98346.90
2018-11-25T16:33:31.246Z,98353.03
2018-11-25T16:35:59.571Z,98350.97
2018-11-25T16:38:27.820Z,98346.84
2018-11-25T16:40:56.476Z,98334.73
2018-11-25T16:43:24.811Z,98334.23
2018-11-25T16:45:53.649Z,98338.64
2018-11-25T16:48:21.886Z,98333.36
2018-11-25T16:50:50.073Z,98333.25
2018-11-25T16:53:19.643Z,98326.36
2018-11-25T16:55:47.897Z,98321.04
2018-11-25T16:58:16.094Z,98326.77
2018-11-25T17:00:44.403Z,98318.69
2018-11-25T17:03:12.566Z,98320.70
2018-11-25T17:05:43.725Z,98319.38
2018-11-25T17:08:45.941Z,98316.92
2018-11-25T17:11:14.238Z,98310.44
2018-11-25T17:13:42.426Z,98304.70
2018-11-25T17:16:12.234Z,98302.88
2018-11-25T17:18:40.401Z,98302.30
2018-11-25T17:21:08.673Z,98300.91
2018-11-25T17:23:37.010Z,98296.95
2018-11-25T17:26:05.488Z,98299.16
2018-11-25T17:28:33.711Z,98298.92
2018-11-25T17:31:01.919Z,98300.30
2018-11-25T17:33:30.420Z,98305.58
2018-11-25T17:35:58.774Z,98303.05
2018-11-25T17:38:27.103Z,98297.72
2018-11-25T17:40:55.516Z,98301.21
2018-11-25T17:43:24.750Z,98310.95
2018-11-25T17:45:52.965Z,98307.42
2018-11-25T17:48:21.547Z,98303.16
2018-11-25T17:50:49.787Z,98304.86
2018-11-25T17:53:20.782Z,98305.58
2018-11-25T17:55:46.174Z,98299.47
2018-11-25T17:58:14.625Z,98300.05
2018-11-25T18:00:46.492Z,98297.88
2018-11-25T18:03:17.544Z,98295.24
2018-11-25T18:05:45.721Z,98297.61
2018-11-25T18:08:13.961Z,98300.27
2018-11-25T18:10:42.954Z,98295.13
2018-11-25T18:13:11.163Z,98295.36
2018-11-25T18:15:39.333Z,98298.84
2018-11-25T18:18:17.069Z,98297.53
2018-11-25T18:20:50.699Z,98295.24
2018-11-25T18:23:18.877Z,98299.31
2018-11-25T18:25:47.185Z,98297.14
2018-11-25T18:28:15.326Z,98302.42
2018-11-25T18:30:44.725Z,98299.59
2018-11-25T18:33:12.930Z,98295.66
2018-11-25T18:35:41.304Z,98296.86
2018-11-25T18:38:09.528Z,98297.83
2018-11-25T18:40:37.818Z,98297.41
2018-11-25T18:43:06.838Z,98298.46
2018-11-25T18:45:35.156Z,98294.20
2018-11-25T18:48:03.409Z,98296.86
2018-11-25T18:50:31.587Z,98290.38
2018-11-25T18:52:59.748Z,98289.80
2018-11-25T18:55:26.847Z,98290.27
2018-11-25T18:57:54.973Z,98296.86
2018-11-25T19:00:27.357Z,98291.02
2018-11-25T19:02:55.522Z,98289.45
2018-11-25T19:05:24.130Z,98291.23
2018-11-25T19:07:52.340Z,98283.21
2018-11-25T19:10:20.545Z,98286.86
2018-11-25T19:12:48.718Z,98293.98
2018-11-25T19:15:18.249Z,98293.19
2018-11-25T19:17:46.662Z,98296.67
2018-11-25T19:20:17.140Z,98292.44
2018-11-25T19:22:45.313Z,98300.17
2018-11-25T19:25:14.694Z,98302.69
2018-11-25T19:27:43.565Z,98303.27
2018-11-25T19:30:13.738Z,98301.48
2018-11-25T19:32:42.512Z,98303.00
2018-11-25T19:35:12.994Z,98304.31
2018-11-25T19:37:41.917Z,98298.77
2018-11-25T19:40:12.336Z,98297.99
2018-11-25T19:42:40.560Z,98284.22
2018-11-25T19:45:13.463Z,98294.97
2018-11-25T19:47:41.646Z,98284.06
2018-11-25T19:50:12.532Z,98291.40
2018-11-25T19:52:40.668Z,98295.82
2018-11-25T19:55:09.096Z,98294.15
2018-11-25T19:57:37.222Z,98294.39
2018-11-25T20:00:09.962Z,98291.59
2018-11-25T20:02:38.151Z,98286.70
2018-11-25T20:05:07.102Z,98288.48
2018-11-25T20:07:35.319Z,98288.30
2018-11-25T20:10:03.574Z,98295.77
2018-11-25T20:12:37.194Z,98298.16
2018-11-25T20:15:05.623Z,98295.88
2018-11-25T20:17:34.897Z,98296.72
2018-11-25T20:20:03.669Z,98302.69
2018-11-25T20:22:31.884Z,98303.78
2018-11-25T20:25:03.259Z,98310.27
2018-11-25T20:27:39.275Z,98310.77
2018-11-25T20:30:13.610Z,98304.64
2018-11-25T20:32:47.274Z,98302.48
2018-11-25T20:35:15.376Z,98304.69
2018-11-25T20:37:48.761Z,98303.20
2018-11-25T20:40:17.011Z,98308.30
2018-11-25T20:42:45.338Z,98306.70
2018-11-25T20:45:20.021Z,98296.45
2018-11-25T20:47:48.219Z,98303.32
2018-11-25T20:50:16.522Z,98302.00
2018-11-25T20:52:50.084Z,98297.47
2018-11-25T20:55:18.221Z,98297.00
2018-11-25T20:57:46.359Z,98304.99
2018-11-25T21:00:15.826Z,98307.05
2018-11-25T21:02:44.083Z,98307.00
2018-11-25T21:05:13.047Z,98309.06
2018-11-25T21:07:41.243Z,98310.08
2018-11-25T21:10:16.620Z,98316.05
2018-11-25T21:12:50.134Z,98318.58
2018-11-25T21:15:18.313Z,98323.27
2018-11-25T21:17:46.446Z,98312.67
2018-11-25T21:20:18.864Z,98319.38
2018-11-25T21:22:47.156Z,98318.58
2018-11-25T21:25:16.401Z,98322.25
2018-11-25T21:27:44.606Z,98318.46
2018-11-25T21:30:15.123Z,98328.08
2018-11-25T21:32:43.595Z,98323.90
2018-11-25T21:35:13.681Z,98321.61
2018-11-25T21:37:41.842Z,98325.12
2018-11-25T21:40:12.227Z,98319.62
2018-11-25T21:42:40.399Z,98323.17
2018-11-25T21:45:10.006Z,98321.63
2018-11-25T21:47:38.163Z,98323.75
2018-11-25T21:50:08.584Z,98323.98
2018-11-25T21:52:36.774Z,98325.81
2018-11-25T21:55:05.209Z,98319.73
2018-11-25T21:57:33.343Z,98313.95
2018-11-25T22:00:01.483Z,98318.66
2018-11-25T22:02:29.679Z,98325.25
2018-11-25T22:04:57.891Z,98322.26
2018-11-25T22:07:26.023Z,98323.77
2018-11-25T22:09:54.555Z,98320.94
2018-11-25T22:12:22.727Z,98324.27
2018-11-25T22:14:50.871Z,98324.90
2018-11-25T22:17:19.974Z,98324.16
2018-11-25T22:19:48.324Z,98316.82
2018-11-25T22:22:16.499Z,98320.61
2018-11-25T22:24:44.676Z,98319.75
2018-11-25T22:27:12.838Z,98320.50
2018-11-25T22:29:41.112Z,98317.97
2018-11-25T22:32:09.299Z,98322.50
2018-11-25T22:34:37.473Z,98315.45
2018-11-25T22:37:07.938Z,98315.85
2018-11-25T22:39:36.067Z,98313.69
2018-11-25T22:42:04.245Z,98317.64
2018-11-25T22:44:32.534Z,98317.39
2018-11-25T22:47:00.684Z,98316.70
2018-11-25T22:49:30.337Z,98315.33
2018-11-25T22:51:58.461Z,98319.18
2018-11-25T22:54:26.649Z,98322.39
2018-11-25T22:56:54.827Z,98324.23
2018-11-25T22:59:22.959Z,98326.70
2018-11-25T23:01:51.223Z,98321.30
2018-11-25T23:05:32.435Z,98328.36
2018-11-25T23:08:00.626Z,98335.52
2018-11-25T23:10:28.790Z,98332.83
2018-11-25T23:12:56.943Z,98330.36
2018-11-25T23:15:25.146Z,98332.14
2018-11-25T23:17:53.362Z,98335.28
2018-11-25T23:20:21.515Z,98336.67
2018-11-25T23:22:49.828Z,98339.42
2018-11-25T23:25:17.982Z,98333.16
2018-11-25T23:27:46.114Z,98330.70
2018-11-25T23:30:14.288Z,98329.39
2018-11-25T23:32:42.579Z,98324.58
2018-11-25T23:35:16.441Z,98323.95
2018-11-25T23:37:44.584Z,98321.53
2018-11-25T23:40:12.711Z,98326.52
2018-11-25T23:42:40.983Z,98320.39
2018-11-25T23:45:10.702Z,98319.75
2018-11-25T23:47:38.865Z,98324.28
2018-11-25T23:50:08.678Z,98325.35
2018-11-25T23:52:37.068Z,98320.44
2018-11-25T23:55:07.048Z,98323.46
2018-11-25T23:57:35.809Z,98319.12
